createdAt,value
2019-05-09T00:02:04.091Z,7.96
2019-05-09T00:07:26.031Z,7.88
2019-05-09T00:12:47.803Z,7.84
2019-05-09T00:18:09.375Z,7.69
2019-05-09T00:23:30.707Z,7.56
2019-05-09T00:28:56.487Z,7.47
2019-05-09T00:34:37.886Z,7.43
2019-05-09T00:39:59.526Z,7.43
2019-05-09T00:45:35.231Z,7.31
2019-05-09T00:50:56.530Z,7.42
2019-05-09T00:56:18.298Z,7.42
2019-05-09T01:01:40.138Z,7.33
2019-05-09T01:07:03.462Z,7.38
2019-05-09T01:12:25.446Z,7.39
2019-05-09T01:17:47.153Z,7.40
2019-05-09T01:23:08.822Z,7.34
2019-05-09T01:28:30.484Z,7.30
2019-05-09T01:34:20.691Z,7.29
2019-05-09T01:39:44.047Z,7.29
2019-05-09T01:45:06.325Z,7.08
2019-05-09T01:50:28.091Z,7.10
2019-05-09T01:55:58.816Z,7.02
2019-05-09T02:01:20.401Z,6.89
2019-05-09T02:06:44.061Z,6.85
2019-05-09T02:12:05.686Z,6.83
2019-05-09T02:18:00.613Z,6.93
2019-05-09T02:23:16.454Z,6.94
2019-05-09T02:28:38.178Z,6.98
2019-05-09T02:33:59.802Z,7.13
2019-05-09T02:39:21.331Z,7.18
2019-05-09T02:44:43.097Z,7.09
2019-05-09T02:50:09.019Z,7.06
2019-05-09T02:55:29.871Z,7.18
2019-05-09T03:01:23.070Z,7.23
2019-05-09T03:06:44.812Z,7.12
2019-05-09T03:12:22.660Z,6.85
2019-05-09T03:17:30.444Z,6.60
2019-05-09T03:22:51.971Z,6.51
2019-05-09T03:28:28.206Z,6.55
2019-05-09T03:33:50.282Z,6.53
2019-05-09T03:39:12.316Z,6.44
2019-05-09T03:44:33.990Z,6.52
2019-05-09T03:50:09.793Z,6.58
2019-05-09T03:55:34.660Z,6.70
2019-05-09T04:00:58.006Z,6.90
2019-05-09T04:06:19.638Z,6.93
2019-05-09T04:11:41.386Z,6.97
2019-05-09T04:17:03.203Z,7.12
2019-05-09T04:22:27.079Z,7.16
2019-05-09T04:27:50.233Z,7.28
2019-05-09T04:33:12.283Z,7.37
2019-05-09T04:38:34.180Z,7.60
2019-05-09T04:43:57.481Z,7.73
2019-05-09T04:49:19.239Z,7.92
2019-05-09T04:54:41.371Z,8.04
2019-05-09T05:00:03.580Z,8.29
2019-05-09T05:05:25.552Z,8.43
2019-05-09T05:10:47.778Z,8.45
2019-05-09T05:16:09.675Z,8.68
2019-05-09T05:21:31.297Z,8.80
2019-05-09T05:26:52.914Z,9.01
2019-05-09T05:32:21.859Z,9.36
2019-05-09T05:37:43.401Z,9.75
2019-05-09T05:43:05.183Z,10.08
2019-05-09T05:48:29.089Z,10.37
2019-05-09T05:53:52.369Z,10.70
2019-05-09T05:59:14.144Z,10.93
2019-05-09T06:04:37.912Z,11.06
2019-05-09T06:09:59.386Z,10.85
2019-05-09T06:15:20.850Z,11.03
2019-05-09T06:20:45.453Z,11.22
2019-05-09T06:26:09.696Z,11.33
2019-05-09T06:31:29.865Z,11.36
2019-05-09T06:36:51.510Z,11.63
2019-05-09T06:42:13.233Z,11.74
2019-05-09T06:47:38.074Z,11.95
2019-05-09T06:52:59.920Z,12.19
2019-05-09T06:58:30.859Z,12.39
2019-05-09T07:03:57.520Z,12.67
2019-05-09T07:09:31.877Z,12.68
2019-05-09T07:14:53.784Z,12.72
2019-05-09T07:20:18.108Z,13.01
2019-05-09T07:25:58.923Z,13.25
2019-05-09T07:31:31.003Z,13.64
2019-05-09T07:36:52.846Z,13.82
2019-05-09T07:42:14.175Z,14.05
2019-05-09T07:47:36.079Z,14.06
2019-05-09T07:52:58.297Z,14.05
2019-05-09T07:58:19.882Z,14.29
2019-05-09T08:03:41.707Z,14.22
2019-05-09T08:09:08.363Z,14.45
2019-05-09T08:14:31.601Z,14.61
2019-05-09T08:19:53.257Z,14.87
2019-05-09T08:25:15.131Z,15.20
2019-05-09T08:30:40.073Z,15.48
2019-05-09T08:36:00.615Z,15.48
2019-05-09T08:41:22.193Z,15.57
2019-05-09T08:46:43.802Z,15.40
2019-05-09T08:52:16.091Z,15.08
2019-05-09T08:57:34.777Z,15.56
2019-05-09T09:02:57.412Z,15.54
2019-05-09T09:08:19.618Z,15.80
2019-05-09T09:13:41.345Z,15.92
2019-05-09T09:19:03.096Z,16.30
2019-05-09T09:24:24.931Z,16.38
2019-05-09T09:29:48.136Z,16.43
2019-05-09T09:35:10.521Z,16.60
2019-05-09T09:40:32.024Z,16.55
2019-05-09T09:46:10.131Z,16.68
2019-05-09T09:51:18.566Z,17.36
2019-05-09T09:56:47.835Z,17.36
2019-05-09T10:02:10.518Z,17.83
2019-05-09T10:07:32.386Z,17.71
2019-05-09T10:12:54.331Z,17.14
2019-05-09T10:18:41.536Z,17.89
2019-05-09T10:24:03.111Z,18.06
2019-05-09T10:29:24.772Z,18.19
2019-05-09T10:40:21.124Z,19.07
2019-05-09T10:46:16.402Z,18.87
2019-05-09T10:51:38.146Z,18.33
2019-05-09T10:57:00.145Z,18.40
2019-05-09T11:02:21.875Z,19.12
2019-05-09T11:07:43.674Z,19.19
2019-05-09T11:13:07.579Z,19.20
2019-05-09T11:18:28.761Z,19.25
2019-05-09T11:23:50.460Z,19.03
2019-05-09T11:29:12.517Z,19.08
2019-05-09T11:34:34.096Z,19.48
2019-05-09T11:39:57.801Z,19.92
2019-05-09T11:45:19.286Z,20.02
2019-05-09T11:50:40.694Z,19.09
2019-05-09T11:56:02.312Z,19.69
2019-05-09T12:01:23.657Z,20.10
2019-05-09T12:06:45.659Z,19.59
2019-05-09T12:12:07.352Z,19.17
2019-05-09T12:17:40.804Z,19.12
2019-05-09T12:22:52.513Z,19.36
2019-05-09T12:28:14.593Z,19.53
2019-05-09T12:33:36.130Z,19.92
2019-05-09T12:38:59.058Z,19.57
2019-05-09T12:44:24.756Z,19.67
2019-05-09T12:49:44.916Z,19.90
2019-05-09T12:55:08.183Z,19.98
2019-05-09T13:00:30.884Z,20.01
2019-05-09T13:05:52.342Z,20.02
2019-05-09T13:11:13.636Z,20.91
2019-05-09T13:16:52.499Z,21.39
2019-05-09T13:22:12.604Z,22.36
2019-05-09T13:27:34.325Z,21.79
2019-05-09T13:32:56.018Z,21.83
2019-05-09T13:38:18.046Z,22.73
2019-05-09T13:43:47.728Z,22.77
2019-05-09T13:49:11.411Z,22.46
2019-05-09T13:54:28.552Z,22.47
2019-05-09T13:59:50.579Z,22.62
2019-05-09T14:05:12.277Z,21.39
2019-05-09T14:10:34.011Z,21.17
2019-05-09T14:15:57.663Z,20.79
2019-05-09T14:21:24.382Z,20.95
2019-05-09T14:26:43.877Z,20.89
2019-05-09T14:32:05.839Z,21.11
2019-05-09T14:37:28.411Z,21.11
2019-05-09T14:42:50.147Z,21.62
2019-05-09T14:48:11.903Z,21.26
2019-05-09T14:53:33.962Z,20.88
2019-05-09T14:58:57.721Z,20.90
2019-05-09T15:04:19.452Z,20.61
2019-05-09T15:09:41.494Z,20.45
2019-05-09T15:15:03.468Z,20.27
2019-05-09T15:20:25.099Z,20.22
2019-05-09T15:25:48.050Z,20.13
2019-05-09T15:31:09.904Z,19.97
2019-05-09T15:36:31.855Z,19.87
2019-05-09T15:41:53.621Z,19.72
2019-05-09T15:47:21.716Z,19.31
2019-05-09T15:52:44.266Z,19.05
2019-05-09T15:58:05.904Z,19.17
2019-05-09T16:03:28.003Z,19.11
2019-05-09T16:08:49.713Z,19.16
2019-05-09T16:14:11.047Z,19.20
2019-05-09T16:19:32.669Z,19.06
2019-05-09T16:24:53.923Z,18.80
2019-05-09T16:30:15.474Z,18.65
2019-05-09T16:35:38.139Z,18.38
2019-05-09T16:40:59.921Z,18.34
2019-05-09T16:46:22.214Z,18.15
2019-05-09T16:51:43.743Z,18.15
2019-05-09T16:57:08.092Z,18.05
2019-05-09T17:02:28.847Z,17.90
2019-05-09T17:07:52.388Z,17.84
2019-05-09T17:13:14.981Z,17.66
2019-05-09T17:18:38.187Z,17.56
2019-05-09T17:24:00.032Z,17.56
2019-05-09T17:29:24.581Z,17.41
2019-05-09T17:34:47.595Z,17.17
2019-05-09T17:40:15.953Z,17.17
2019-05-09T17:45:41.093Z,17.13
2019-05-09T17:51:00.225Z,16.90
2019-05-09T17:56:22.025Z,16.56
2019-05-09T18:01:43.868Z,16.20
2019-05-09T18:07:08.534Z,15.95
2019-05-09T18:12:29.496Z,15.54
2019-05-09T18:17:54.139Z,15.08
2019-05-09T18:23:17.664Z,14.85
2019-05-09T18:28:40.413Z,14.52
2019-05-09T18:34:02.709Z,14.23
2019-05-09T18:39:24.668Z,14.15
2019-05-09T18:44:47.638Z,13.90
2019-05-09T18:50:09.877Z,13.69
2019-05-09T18:55:31.459Z,13.63
2019-05-09T19:00:52.819Z,13.49
2019-05-09T19:06:14.585Z,13.51
2019-05-09T19:11:36.288Z,13.39
2019-05-09T19:17:23.487Z,13.31
2019-05-09T19:22:45.294Z,13.09
2019-05-09T19:28:06.939Z,13.08
2019-05-09T19:33:28.442Z,13.14
2019-05-09T19:38:57.362Z,13.05
2019-05-09T19:44:19.099Z,12.90
2019-05-09T19:49:41.247Z,12.78
2019-05-09T19:55:02.783Z,12.91
2019-05-09T20:00:24.718Z,12.89
2019-05-09T20:05:46.256Z,12.76
2019-05-09T20:11:36.367Z,12.67
2019-05-09T20:16:58.568Z,12.73
2019-05-09T20:22:22.102Z,12.67
2019-05-09T20:27:44.382Z,12.66
2019-05-09T20:33:06.184Z,12.70
2019-05-09T20:38:27.714Z,12.62
2019-05-09T20:43:49.505Z,12.74
2019-05-09T20:49:11.141Z,12.84
2019-05-09T20:54:32.623Z,12.82
2019-05-09T20:59:54.016Z,12.83
2019-05-09T21:05:15.958Z,12.79
2019-05-09T21:10:37.639Z,12.90
2019-05-09T21:15:59.198Z,12.96
2019-05-09T21:21:20.881Z,12.87
2019-05-09T21:26:43.062Z,13.03
2019-05-09T21:32:04.545Z,12.99
2019-05-09T21:37:26.537Z,12.85
2019-05-09T21:42:48.360Z,12.89
2019-05-09T21:48:10.130Z,12.96
2019-05-09T21:53:40.479Z,12.96
2019-05-09T21:58:55.410Z,13.02
2019-05-09T22:04:17.086Z,12.93
2019-05-09T22:09:39.217Z,13.06
2019-05-09T22:15:03.796Z,12.99
2019-05-09T22:20:24.775Z,13.03
2019-05-09T22:25:46.319Z,12.83
2019-05-09T22:31:07.765Z,12.71
2019-05-09T22:36:29.657Z,12.65
2019-05-09T22:41:51.557Z,12.58
2019-05-09T22:47:13.090Z,12.47
2019-05-09T22:52:34.695Z,12.61
2019-05-09T22:57:56.800Z,12.64
2019-05-09T23:03:18.840Z,12.49
2019-05-09T23:08:40.691Z,12.51
2019-05-09T23:14:02.227Z,12.61
2019-05-09T23:19:23.985Z,12.54
2019-05-09T23:24:45.701Z,12.59
2019-05-09T23:30:09.718Z,12.52
2019-05-09T23:35:31.652Z,12.60
2019-05-09T23:40:53.397Z,12.55
2019-05-09T23:46:15.058Z,12.52
2019-05-09T23:51:46.923Z,12.47
2019-05-09T23:57:27.750Z,12.49
